Tyne Valley, Canada
Current Conditions -  °F | °C
As of 2:36 AM on Sunday 26 Oct 2014 (Local Time) from CYYG Reporting Station
Overcast Overcast  
Wind Chill:   Ceiling: 800
Heat Index:   Visibility: 15mi
Dew Point:   Wind: 7mph
Humidity: 93%   Direction: 240°WSW
Pressure: 29.46"   Gusts: NA
Location:  46.57°N, 63.93°W
Report Text: CYYG 260536Z 24006KT 15SM BKN008 OVC055 07/06 A2946 RMK SF6SC2 SLP978
Loading
Personal Weather Stations






























Interactive Weather Map
Tropical Storm Tracking
New forecast layout! Learn more

10-Day Weather Forecast

Advertisements
Track Severe Weather on mobile